createdAt,value
2022-11-08T00:00:06.683Z,4.05
2022-11-08T00:02:34.523Z,4.15
2022-11-08T00:05:20.834Z,4.15
2022-11-08T00:08:07.264Z,4.40
2022-11-08T00:10:53.447Z,4.57
2022-11-08T00:13:39.389Z,3.97
2022-11-08T00:16:06.813Z,4.30
2022-11-08T00:18:34.334Z,4.50
2022-11-08T00:21:02.725Z,4.38
2022-11-08T00:23:30.140Z,4.30
2022-11-08T00:25:57.707Z,4.10
2022-11-08T00:28:25.206Z,4.15
2022-11-08T00:30:52.918Z,4.25
2022-11-08T00:33:20.312Z,4.80
2022-11-08T00:35:47.648Z,4.40
2022-11-08T00:38:15.632Z,4.57
2022-11-08T00:40:43.338Z,4.15
2022-11-08T00:43:10.828Z,5.00
2022-11-08T00:45:38.270Z,4.70
2022-11-08T00:48:05.786Z,4.75
2022-11-08T00:50:33.254Z,4.60
2022-11-08T00:53:00.945Z,4.57
2022-11-08T00:55:28.380Z,4.88
2022-11-08T00:58:00.332Z,4.75
2022-11-08T01:00:28.512Z,4.43
2022-11-08T01:03:14.971Z,4.82
2022-11-08T01:05:42.837Z,4.68
2022-11-08T01:08:10.770Z,4.40
2022-11-08T01:10:38.756Z,4.80
2022-11-08T01:13:06.294Z,4.78
2022-11-08T01:15:37.318Z,4.75
2022-11-08T01:18:05.524Z,4.38
2022-11-08T01:20:33.307Z,4.97
2022-11-08T01:23:00.647Z,4.43
2022-11-08T01:25:28.342Z,4.75
2022-11-08T01:27:56.046Z,4.65
2022-11-08T01:30:23.477Z,4.43
2022-11-08T01:32:50.825Z,4.63
2022-11-08T01:35:18.143Z,4.15
2022-11-08T01:37:45.853Z,4.50
2022-11-08T01:40:13.667Z,4.07
2022-11-08T01:42:41.357Z,4.32
2022-11-08T01:45:12.379Z,5.10
2022-11-08T01:47:40.053Z,4.55
2022-11-08T01:50:07.369Z,4.85
2022-11-08T01:52:36.247Z,4.57
2022-11-08T01:55:13.954Z,5.22
2022-11-08T01:57:53.472Z,4.15
2022-11-08T02:00:20.834Z,4.53
2022-11-08T02:02:52.902Z,4.63
2022-11-08T02:05:26.662Z,4.22
2022-11-08T02:08:03.583Z,4.43
2022-11-08T02:10:51.313Z,4.45
2022-11-08T02:13:23.088Z,4.65
2022-11-08T02:15:50.515Z,4.38
2022-11-08T02:18:19.005Z,4.55
2022-11-08T02:21:06.894Z,4.13
2022-11-08T02:23:43.356Z,4.25
2022-11-08T02:26:10.696Z,4.43
2022-11-08T02:28:41.985Z,4.55
2022-11-08T02:31:11.128Z,4.50
2022-11-08T02:33:38.866Z,4.60
2022-11-08T02:36:07.509Z,3.72
2022-11-08T02:38:39.025Z,4.75
2022-11-08T02:41:06.585Z,4.13
2022-11-08T02:43:34.424Z,3.67
2022-11-08T02:46:02.097Z,4.82
2022-11-08T02:48:29.888Z,4.70
2022-11-08T02:50:57.152Z,4.38
2022-11-08T02:53:24.495Z,3.58
2022-11-08T02:55:51.967Z,4.93
2022-11-08T02:58:19.949Z,4.13
2022-11-08T03:00:47.677Z,3.70
2022-11-08T03:03:15.411Z,3.92
2022-11-08T03:05:43.935Z,3.92
2022-11-08T03:08:11.416Z,3.95
2022-11-08T03:10:39.086Z,4.93
2022-11-08T03:13:07.062Z,4.07
2022-11-08T03:15:34.393Z,3.78
2022-11-08T03:18:03.102Z,4.25
2022-11-08T03:20:33.080Z,4.40
2022-11-08T03:23:02.067Z,4.70
2022-11-08T03:25:29.697Z,4.30
2022-11-08T03:27:57.287Z,4.32
2022-11-08T03:30:24.726Z,4.00
2022-11-08T03:32:52.105Z,4.60
2022-11-08T03:35:19.504Z,3.53
2022-11-08T03:37:53.968Z,4.55
2022-11-08T03:40:22.045Z,4.35
2022-11-08T03:42:49.495Z,4.50
2022-11-08T03:45:17.471Z,3.58
2022-11-08T03:47:46.079Z,3.78
2022-11-08T03:50:14.280Z,3.83
2022-11-08T03:52:45.556Z,4.03
2022-11-08T03:55:13.612Z,3.80
2022-11-08T03:57:41.851Z,3.55
2022-11-08T04:00:10.264Z,3.30
2022-11-08T04:02:37.774Z,3.25
2022-11-08T04:05:05.589Z,3.08
2022-11-08T04:07:33.270Z,3.42
2022-11-08T04:10:00.953Z,3.58
2022-11-08T04:13:00.584Z,3.58
2022-11-08T04:15:28.624Z,3.67
2022-11-08T04:18:15.239Z,3.50
2022-11-08T04:21:03.146Z,3.70
2022-11-08T04:23:31.333Z,4.18
2022-11-08T04:25:59.981Z,3.67
2022-11-08T04:28:28.228Z,3.50
2022-11-08T04:31:03.680Z,3.25
2022-11-08T04:33:31.299Z,3.72
2022-11-08T04:36:03.325Z,3.28
2022-11-08T04:38:31.168Z,3.55
2022-11-08T04:41:02.951Z,4.03
2022-11-08T04:43:31.225Z,3.50
2022-11-08T04:46:08.504Z,3.40
2022-11-08T04:48:36.598Z,3.20
2022-11-08T04:51:08.918Z,2.97
2022-11-08T04:53:36.665Z,3.58
2022-11-08T04:56:12.020Z,3.33
2022-11-08T04:58:45.472Z,3.13
2022-11-08T05:01:14.112Z,3.13
2022-11-08T05:03:41.760Z,2.75
2022-11-08T05:06:13.582Z,3.00
2022-11-08T05:08:41.427Z,2.90
2022-11-08T05:11:13.999Z,3.42
2022-11-08T05:13:42.028Z,2.75
2022-11-08T05:16:11.484Z,3.30
2022-11-08T05:18:41.735Z,3.17
2022-11-08T05:21:29.096Z,3.25
2022-11-08T05:23:56.542Z,3.30
2022-11-08T05:26:23.926Z,3.05
2022-11-08T05:28:51.377Z,3.20
2022-11-08T05:31:19.070Z,3.30
2022-11-08T05:33:46.788Z,3.72
2022-11-08T05:36:15.201Z,3.53
2022-11-08T05:38:42.930Z,3.03
2022-11-08T05:41:15.885Z,2.70
2022-11-08T05:43:44.123Z,3.20
2022-11-08T05:46:11.600Z,3.00
2022-11-08T05:48:39.009Z,3.00
2022-11-08T05:51:06.404Z,2.20
2022-11-08T05:53:34.354Z,2.90
2022-11-08T05:56:03.093Z,2.58
2022-11-08T05:58:31.342Z,2.72
2022-11-08T06:01:25.018Z,3.30
2022-11-08T06:03:52.577Z,2.40
2022-11-08T06:06:21.384Z,2.30
2022-11-08T06:11:36.883Z,2.80
2022-11-08T06:14:04.816Z,2.80
2022-11-08T06:16:32.211Z,2.33
2022-11-08T06:18:59.707Z,2.40
2022-11-08T06:21:27.586Z,2.70
2022-11-08T06:23:54.994Z,3.90
2022-11-08T06:26:23.460Z,4.47
2022-11-08T06:28:51.245Z,4.80
2022-11-08T06:31:18.904Z,7.13
2022-11-08T06:33:46.393Z,6.68
2022-11-08T06:36:13.781Z,7.25
2022-11-08T06:38:41.529Z,5.30
2022-11-08T06:41:10.357Z,5.00
2022-11-08T06:43:37.723Z,4.40
2022-11-08T06:46:05.252Z,5.20
2022-11-08T06:48:36.123Z,3.90
2022-11-08T06:51:04.066Z,4.32
2022-11-08T06:53:31.656Z,4.85
2022-11-08T06:56:02.972Z,6.32
2022-11-08T06:58:31.147Z,6.07
2022-11-08T07:00:58.807Z,6.63
2022-11-08T07:03:26.387Z,6.93
2022-11-08T07:05:54.183Z,6.65
2022-11-08T07:08:24.029Z,6.20
2022-11-08T07:10:51.886Z,5.63
2022-11-08T07:13:19.771Z,4.85
2022-11-08T07:15:50.470Z,3.45
2022-11-08T07:18:19.326Z,3.70
2022-11-08T07:20:47.197Z,3.30
2022-11-08T07:23:14.724Z,6.72
2022-11-08T07:25:42.113Z,7.07
2022-11-08T07:28:14.015Z,9.05
2022-11-08T07:30:41.712Z,8.02
2022-11-08T07:33:09.010Z,8.82
2022-11-08T07:35:36.524Z,6.85
2022-11-08T07:38:04.042Z,6.38
2022-11-08T07:40:31.385Z,6.97
2022-11-08T07:43:11.857Z,5.38
2022-11-08T07:45:40.708Z,5.10
2022-11-08T07:48:12.063Z,5.70
2022-11-08T07:50:40.437Z,5.35
2022-11-08T07:53:08.146Z,5.30
2022-11-08T07:55:39.416Z,5.10
2022-11-08T07:58:06.841Z,5.55
2022-11-08T08:00:36.763Z,4.63
2022-11-08T08:03:05.278Z,4.65
2022-11-08T08:05:35.090Z,4.18
2022-11-08T08:08:02.611Z,4.78
2022-11-08T08:10:30.819Z,3.80
2022-11-08T08:12:58.760Z,4.03
2022-11-08T08:15:26.660Z,4.75
2022-11-08T08:17:54.128Z,3.53
2022-11-08T08:20:21.803Z,3.67
2022-11-08T08:22:50.165Z,3.70
2022-11-08T08:25:18.241Z,3.55
2022-11-08T08:27:49.061Z,3.33
2022-11-08T08:30:17.629Z,3.45
2022-11-08T08:32:48.026Z,3.40
2022-11-08T08:35:20.693Z,3.00
2022-11-08T08:37:48.142Z,3.22
2022-11-08T08:40:15.624Z,3.28
2022-11-08T08:42:43.230Z,3.22
2022-11-08T08:45:14.869Z,2.83
2022-11-08T08:47:42.885Z,3.53
2022-11-08T08:50:12.381Z,3.67
2022-11-08T08:52:41.085Z,3.25
2022-11-08T08:55:08.704Z,3.58
2022-11-08T08:57:36.183Z,2.75
2022-11-08T09:02:51.879Z,3.25
2022-11-08T09:05:19.632Z,3.05
2022-11-08T09:07:47.095Z,3.13
2022-11-08T09:10:14.527Z,2.88
2022-11-08T09:12:41.911Z,3.38
2022-11-08T09:15:09.806Z,2.75
2022-11-08T09:17:37.553Z,3.03
2022-11-08T09:20:05.370Z,3.05
2022-11-08T09:22:34.196Z,3.10
2022-11-08T09:25:02.145Z,3.40
2022-11-08T09:27:33.009Z,2.97
2022-11-08T09:30:00.781Z,2.85
2022-11-08T09:32:46.319Z,2.92
2022-11-08T09:35:16.604Z,3.30
2022-11-08T09:37:49.697Z,2.85
2022-11-08T09:40:46.190Z,3.15
2022-11-08T09:43:32.499Z,2.80
2022-11-08T09:46:00.097Z,2.47
2022-11-08T09:48:29.774Z,2.80
2022-11-08T09:50:58.776Z,2.88
2022-11-08T09:53:35.540Z,2.97
2022-11-08T09:56:08.981Z,2.75
2022-11-08T09:58:39.383Z,2.50
2022-11-08T10:01:06.834Z,2.65
2022-11-08T10:03:34.925Z,2.53
2022-11-08T10:06:21.257Z,2.67
2022-11-08T10:08:52.061Z,2.47
2022-11-08T10:11:33.621Z,2.40
2022-11-08T10:14:01.088Z,2.10
2022-11-08T10:16:28.530Z,2.13
2022-11-08T10:18:55.978Z,2.42
2022-11-08T10:21:39.136Z,1.70
2022-11-08T10:24:09.594Z,1.98
2022-11-08T10:26:39.604Z,1.77
2022-11-08T10:29:14.251Z,1.50
2022-11-08T10:31:42.827Z,1.80
2022-11-08T10:34:29.312Z,1.52
2022-11-08T10:37:02.214Z,1.83
2022-11-08T10:39:31.418Z,2.00
2022-11-08T10:42:11.259Z,1.92
2022-11-08T10:44:39.034Z,1.45
2022-11-08T10:47:22.679Z,1.92
2022-11-08T10:49:50.279Z,1.60
2022-11-08T10:52:17.538Z,2.40
2022-11-08T10:54:52.588Z,1.65
2022-11-08T10:57:29.239Z,1.52
2022-11-08T10:59:57.491Z,1.83
2022-11-08T11:02:35.946Z,1.65
2022-11-08T11:05:32.807Z,1.52
2022-11-08T11:08:03.067Z,1.63
2022-11-08T11:10:37.670Z,1.80
2022-11-08T11:13:07.879Z,1.90
2022-11-08T11:15:40.354Z,1.80
2022-11-08T11:18:19.650Z,2.10
2022-11-08T11:21:05.836Z,2.17
2022-11-08T11:23:37.685Z,2.10
2022-11-08T11:26:06.643Z,2.35
2022-11-08T11:28:36.189Z,2.13
2022-11-08T11:31:15.766Z,2.30
2022-11-08T11:33:47.304Z,2.30
2022-11-08T11:36:19.386Z,2.30
2022-11-08T11:38:50.743Z,2.30
2022-11-08T11:41:20.522Z,2.55
2022-11-08T11:43:50.422Z,2.40
2022-11-08T11:46:44.557Z,2.30
2022-11-08T11:49:17.566Z,2.77
2022-11-08T11:51:45.061Z,2.65
2022-11-08T11:54:14.977Z,2.38
2022-11-08T11:56:48.298Z,2.35
2022-11-08T11:59:15.801Z,2.05
2022-11-08T12:01:43.565Z,1.90
2022-11-08T12:04:14.016Z,2.30
2022-11-08T12:06:41.749Z,1.92
2022-11-08T12:09:16.943Z,1.83
2022-11-08T12:11:47.701Z,1.70
2022-11-08T12:14:27.535Z,1.80
2022-11-08T12:16:58.309Z,2.17
2022-11-08T12:19:25.656Z,1.70
2022-11-08T12:22:11.586Z,1.80
2022-11-08T12:24:42.061Z,1.90
2022-11-08T12:27:09.367Z,1.77
2022-11-08T12:29:43.133Z,2.72
2022-11-08T12:32:10.608Z,2.08
2022-11-08T12:34:54.430Z,1.92
2022-11-08T12:37:28.501Z,2.33
2022-11-08T12:40:04.187Z,1.92
2022-11-08T12:42:32.609Z,1.73
2022-11-08T12:45:19.047Z,2.00
2022-11-08T12:47:46.702Z,1.98
2022-11-08T12:50:17.265Z,2.50
2022-11-08T12:52:56.831Z,2.10
2022-11-08T12:55:26.580Z,1.90
2022-11-08T12:57:55.929Z,2.17
2022-11-08T13:00:23.634Z,2.13
2022-11-08T13:03:01.797Z,2.10
2022-11-08T13:05:38.294Z,2.20
2022-11-08T13:08:13.101Z,2.65
2022-11-08T13:10:40.544Z,2.20
2022-11-08T13:13:10.889Z,2.10
2022-11-08T13:15:58.167Z,2.35
2022-11-08T13:18:33.304Z,1.90
2022-11-08T13:21:01.277Z,2.45
2022-11-08T13:23:30.565Z,2.15
2022-11-08T13:26:18.747Z,2.45
2022-11-08T13:28:46.620Z,2.08
2022-11-08T13:31:19.067Z,2.15
2022-11-08T13:33:53.857Z,2.08
2022-11-08T13:36:37.849Z,2.40
2022-11-08T13:39:25.122Z,1.90
2022-11-08T13:42:22.098Z,1.88
2022-11-08T13:44:55.792Z,2.90
2022-11-08T13:47:36.686Z,1.77
2022-11-08T13:50:22.879Z,1.65
2022-11-08T13:53:03.279Z,1.58
2022-11-08T13:55:55.132Z,2.10
2022-11-08T13:58:35.059Z,2.10
2022-11-08T14:01:04.072Z,1.75
2022-11-08T14:03:34.896Z,1.90
2022-11-08T14:06:08.507Z,1.70
2022-11-08T14:08:51.284Z,1.80
2022-11-08T14:11:37.553Z,1.80
2022-11-08T14:14:34.094Z,1.70
2022-11-08T14:17:10.933Z,1.58
2022-11-08T14:19:42.162Z,1.60
2022-11-08T14:22:14.161Z,1.70
2022-11-08T14:24:42.114Z,1.80
2022-11-08T14:27:12.336Z,1.45
2022-11-08T14:29:39.646Z,1.48
2022-11-08T14:32:08.695Z,1.45
2022-11-08T14:34:38.242Z,1.50
2022-11-08T14:37:07.534Z,1.60
2022-11-08T14:39:37.080Z,2.00
2022-11-08T14:42:06.134Z,1.63
2022-11-08T14:44:33.569Z,1.63
2022-11-08T14:47:00.955Z,1.60
2022-11-08T14:49:36.194Z,1.83
2022-11-08T14:52:07.865Z,2.20
2022-11-08T14:54:40.286Z,1.60
2022-11-08T14:57:27.964Z,2.15
2022-11-08T14:59:56.711Z,1.55
2022-11-08T15:02:24.858Z,1.75
2022-11-08T15:04:52.347Z,1.80
2022-11-08T15:07:21.789Z,2.35
2022-11-08T15:09:49.895Z,1.95
2022-11-08T15:12:21.760Z,1.90
2022-11-08T15:14:56.153Z,1.80
2022-11-08T15:19:51.183Z,1.77
2022-11-08T15:22:27.894Z,1.85
2022-11-08T15:25:02.795Z,1.60
2022-11-08T15:27:30.392Z,1.85
2022-11-08T15:30:02.500Z,1.75
2022-11-08T15:32:36.525Z,1.85
2022-11-08T15:35:04.586Z,2.30
2022-11-08T15:37:39.356Z,1.75
2022-11-08T15:40:08.535Z,1.95
2022-11-08T15:42:39.471Z,1.70
2022-11-08T15:45:13.501Z,1.70
2022-11-08T15:47:44.206Z,2.58
2022-11-08T15:50:17.750Z,3.33
2022-11-08T15:52:46.088Z,4.15
2022-11-08T15:55:18.743Z,4.57
2022-11-08T15:57:47.661Z,4.70
2022-11-08T16:00:16.822Z,3.80
2022-11-08T16:02:44.799Z,3.13
2022-11-08T16:05:16.651Z,3.38
2022-11-08T16:07:45.100Z,3.35
2022-11-08T16:10:13.715Z,3.10
2022-11-08T16:12:42.637Z,2.95
2022-11-08T16:15:12.623Z,2.63
2022-11-08T16:17:40.736Z,2.92
2022-11-08T16:20:24.854Z,3.15
2022-11-08T16:22:52.667Z,3.40
2022-11-08T16:25:20.236Z,6.20
2022-11-08T16:27:53.142Z,4.25
2022-11-08T16:30:20.853Z,5.22
2022-11-08T16:32:48.342Z,7.38
2022-11-08T16:35:16.322Z,8.82
2022-11-08T16:37:44.533Z,9.10
2022-11-08T16:40:18.461Z,8.43
2022-11-08T16:42:46.635Z,6.35
2022-11-08T16:45:14.560Z,4.90
2022-11-08T16:47:43.194Z,4.72
2022-11-08T16:50:28.874Z,3.40
2022-11-08T16:52:56.340Z,3.20
2022-11-08T16:55:23.867Z,3.40
2022-11-08T16:57:51.447Z,2.50
2022-11-08T17:00:19.906Z,3.05
2022-11-08T17:02:51.686Z,3.10
2022-11-08T17:05:21.339Z,4.97
2022-11-08T17:07:51.192Z,6.38
2022-11-08T17:10:22.390Z,6.78
2022-11-08T17:12:50.180Z,5.20
2022-11-08T17:15:19.442Z,6.10
2022-11-08T17:17:47.027Z,10.18
2022-11-08T17:20:15.836Z,11.27
2022-11-08T17:22:43.818Z,12.40
2022-11-08T17:25:12.235Z,12.00
2022-11-08T17:27:39.674Z,12.30
2022-11-08T17:30:07.836Z,10.93
2022-11-08T17:32:36.437Z,7.72
2022-11-08T17:35:05.536Z,8.65
2022-11-08T17:37:33.649Z,8.25
2022-11-08T17:40:01.863Z,7.65
2022-11-08T17:42:32.816Z,7.20
2022-11-08T17:45:05.088Z,10.18
2022-11-08T17:47:32.606Z,9.23
2022-11-08T17:49:59.949Z,9.60
2022-11-08T17:52:27.439Z,8.50
2022-11-08T17:54:54.793Z,9.57
2022-11-08T17:57:22.505Z,8.43
2022-11-08T17:59:50.629Z,10.10
2022-11-08T18:02:18.649Z,9.02
2022-11-08T18:04:46.318Z,8.65
2022-11-08T18:07:13.807Z,9.43
2022-11-08T18:09:41.176Z,10.38
2022-11-08T18:12:08.679Z,9.95
2022-11-08T18:14:36.424Z,10.73
2022-11-08T18:17:05.590Z,10.88
2022-11-08T18:19:33.228Z,10.73
2022-11-08T18:22:00.837Z,11.23
2022-11-08T18:24:28.283Z,13.35
2022-11-08T18:26:55.948Z,11.98
2022-11-08T18:29:23.635Z,11.93
2022-11-08T18:31:51.231Z,9.13
2022-11-08T18:34:18.578Z,9.45
2022-11-08T18:36:48.986Z,10.75
2022-11-08T18:39:19.582Z,10.95
2022-11-08T18:41:47.666Z,11.50
2022-11-08T18:44:15.297Z,11.80
2022-11-08T18:46:43.641Z,10.55
2022-11-08T18:49:11.464Z,10.13
2022-11-08T18:51:39.096Z,9.65
2022-11-08T18:54:06.810Z,10.43
2022-11-08T18:56:34.598Z,12.10
2022-11-08T18:59:02.125Z,10.25
2022-11-08T19:01:29.756Z,10.05
2022-11-08T19:03:57.558Z,10.90
2022-11-08T19:06:25.149Z,10.90
2022-11-08T19:08:52.725Z,11.20
2022-11-08T19:11:23.002Z,13.45
2022-11-08T19:13:50.720Z,11.55
2022-11-08T19:16:19.718Z,10.85
2022-11-08T19:18:49.391Z,10.82
2022-11-08T19:21:21.235Z,11.15
2022-11-08T19:23:48.784Z,8.10
2022-11-08T19:26:17.844Z,6.50
2022-11-08T19:28:46.260Z,6.13
2022-11-08T19:31:15.509Z,5.40
2022-11-08T19:33:42.896Z,5.32
2022-11-08T19:36:13.066Z,5.47
2022-11-08T19:38:42.347Z,6.07
2022-11-08T19:41:11.281Z,5.70
2022-11-08T19:43:39.147Z,5.65
2022-11-08T19:46:08.294Z,5.28
2022-11-08T19:48:36.703Z,5.00
2022-11-08T19:51:04.985Z,5.50
2022-11-08T19:53:33.028Z,6.10
2022-11-08T19:56:07.922Z,4.90
2022-11-08T19:58:36.167Z,4.93
2022-11-08T20:01:10.938Z,3.90
2022-11-08T20:03:39.558Z,4.40
2022-11-08T20:06:07.724Z,3.72
2022-11-08T20:08:35.232Z,4.10
2022-11-08T20:11:10.613Z,6.35
2022-11-08T20:13:38.589Z,8.68
2022-11-08T20:16:27.191Z,9.20
2022-11-08T20:18:55.793Z,7.53
2022-11-08T20:21:23.587Z,10.15
2022-11-08T20:23:51.049Z,9.40
2022-11-08T20:26:20.685Z,9.73
2022-11-08T20:28:55.989Z,7.32
2022-11-08T20:31:25.332Z,6.10
2022-11-08T20:33:54.161Z,5.60
2022-11-08T20:36:22.950Z,6.22
2022-11-08T20:38:51.037Z,6.30
2022-11-08T20:41:19.070Z,5.07
2022-11-08T20:43:47.429Z,5.35
2022-11-08T20:46:16.064Z,4.88
2022-11-08T20:48:44.367Z,5.03
2022-11-08T20:51:15.638Z,5.00
2022-11-08T20:53:43.070Z,5.30
2022-11-08T20:56:12.624Z,5.20
2022-11-08T20:58:41.340Z,5.32
2022-11-08T21:01:09.458Z,4.35
2022-11-08T21:03:36.848Z,4.47
2022-11-08T21:06:05.721Z,12.63
2022-11-08T21:11:22.490Z,12.15
2022-11-08T21:13:50.138Z,12.77
2022-11-08T21:16:52.619Z,9.90
2022-11-08T21:19:05.928Z,10.85
2022-11-08T21:21:33.345Z,8.00
2022-11-08T21:24:02.165Z,9.10
2022-11-08T21:26:29.957Z,7.25
2022-11-08T21:28:57.702Z,4.97
2022-11-08T21:31:25.391Z,4.18
2022-11-08T21:33:53.257Z,4.03
2022-11-08T21:36:21.285Z,3.95
2022-11-08T21:38:48.730Z,3.92
2022-11-08T21:41:16.441Z,3.92
2022-11-08T21:43:44.895Z,3.67
2022-11-08T21:46:22.687Z,7.05
2022-11-08T21:48:57.838Z,6.38
2022-11-08T21:51:26.001Z,5.10
2022-11-08T21:53:55.455Z,5.63
2022-11-08T21:56:24.942Z,7.68
2022-11-08T21:58:52.579Z,7.15
2022-11-08T22:01:22.272Z,6.90
2022-11-08T22:03:53.089Z,6.35
2022-11-08T22:06:21.800Z,6.53
2022-11-08T22:08:49.694Z,7.85
2022-11-08T22:11:17.107Z,6.55
2022-11-08T22:13:44.588Z,5.70
2022-11-08T22:16:12.296Z,6.13
2022-11-08T22:21:40.712Z,5.32
2022-11-08T22:24:20.627Z,5.45
2022-11-08T22:26:48.659Z,5.85
2022-11-08T22:29:16.552Z,5.85
2022-11-08T22:31:44.352Z,5.47
2022-11-08T22:34:12.340Z,5.50
2022-11-08T22:36:44.802Z,5.50
2022-11-08T22:39:14.155Z,4.95
2022-11-08T22:41:41.942Z,4.95
2022-11-08T22:44:12.371Z,4.65
2022-11-08T22:46:40.559Z,4.75
2022-11-08T22:49:07.982Z,4.07
2022-11-08T22:51:35.637Z,3.88
2022-11-08T22:54:03.228Z,4.55
2022-11-08T22:56:30.593Z,4.93
2022-11-08T22:58:58.250Z,5.15
2022-11-08T23:01:25.913Z,4.65
2022-11-08T23:03:53.263Z,4.95
2022-11-08T23:06:20.935Z,5.10
2022-11-08T23:08:48.498Z,4.60
2022-11-08T23:11:34.766Z,4.90
2022-11-08T23:14:20.973Z,5.03
2022-11-08T23:16:48.344Z,4.65
2022-11-08T23:19:36.015Z,4.50
2022-11-08T23:22:23.328Z,4.72
2022-11-08T23:24:50.669Z,4.68
2022-11-08T23:27:37.837Z,4.68
2022-11-08T23:30:25.087Z,4.85
2022-11-08T23:32:53.085Z,4.45
2022-11-08T23:35:21.548Z,4.30
2022-11-08T23:37:49.395Z,5.05
2022-11-08T23:40:36.679Z,5.45
2022-11-08T23:43:22.787Z,4.85
2022-11-08T23:45:50.559Z,4.35
2022-11-08T23:48:18.119Z,4.50
2022-11-08T23:50:49.412Z,5.18
2022-11-08T23:53:17.566Z,4.22
2022-11-08T23:55:45.459Z,4.80
2022-11-08T23:58:13.846Z,4.25
